createdAt,value
2019-02-05T00:02:13.783Z,101470.06
2019-02-05T00:04:44.133Z,101462.86
2019-02-05T00:07:14.471Z,101464.95
2019-02-05T00:09:45.186Z,101464.99
2019-02-05T00:12:17.741Z,101469.36
2019-02-05T00:14:48.629Z,101475.45
2019-02-05T00:17:18.907Z,101474.42
2019-02-05T00:19:49.421Z,101472.05
2019-02-05T00:22:19.777Z,101464.59
2019-02-05T00:24:51.134Z,101466.88
2019-02-05T00:27:22.459Z,101459.88
2019-02-05T00:29:52.780Z,101460.01
2019-02-05T00:32:23.376Z,101462.20
2019-02-05T00:34:53.793Z,101469.05
2019-02-05T00:37:24.548Z,101471.95
2019-02-05T00:39:54.829Z,101475.20
2019-02-05T00:42:25.461Z,101483.56
2019-02-05T00:44:56.807Z,101486.30
2019-02-05T00:47:27.305Z,101477.11
2019-02-05T00:49:57.934Z,101478.11
2019-02-05T00:52:28.308Z,101481.06
2019-02-05T00:54:58.636Z,101468.33
2019-02-05T00:57:28.985Z,101471.88
2019-02-05T00:59:59.328Z,101472.66
2019-02-05T01:02:30.116Z,101463.77
2019-02-05T01:05:00.544Z,101468.20
2019-02-05T01:07:31.108Z,101474.59
2019-02-05T01:10:02.467Z,101473.17
2019-02-05T01:12:34.376Z,101473.57
2019-02-05T01:15:06.290Z,101473.57
2019-02-05T01:17:36.844Z,101483.27
2019-02-05T01:20:10.623Z,101478.59
2019-02-05T01:22:41.977Z,101483.37
2019-02-05T01:25:12.338Z,101475.55
2019-02-05T01:27:42.670Z,101478.75
2019-02-05T01:30:19.236Z,101481.34
2019-02-05T01:32:49.794Z,101475.92
2019-02-05T01:35:20.203Z,101471.97
2019-02-05T01:37:51.736Z,101468.97
2019-02-05T01:40:30.934Z,101465.81
2019-02-05T01:43:01.960Z,101471.15
2019-02-05T01:45:32.233Z,101481.20
2019-02-05T01:48:03.080Z,101471.04
2019-02-05T01:50:33.627Z,101482.52
2019-02-05T01:53:04.600Z,101475.92
2019-02-05T01:55:35.845Z,101474.04
2019-02-05T01:58:06.261Z,101473.08
2019-02-05T02:00:38.782Z,101473.94
2019-02-05T02:03:09.798Z,101480.64
2019-02-05T02:05:41.049Z,101478.81
2019-02-05T02:08:11.553Z,101466.84
2019-02-05T02:10:41.858Z,101476.98
2019-02-05T02:13:12.358Z,101474.76
2019-02-05T02:15:42.641Z,101477.40
2019-02-05T02:18:12.934Z,101475.21
2019-02-05T02:20:43.504Z,101466.52
2019-02-05T02:23:13.821Z,101465.14
2019-02-05T02:25:46.252Z,101479.97
2019-02-05T02:28:17.766Z,101470.95
2019-02-05T02:30:49.156Z,101473.57
2019-02-05T02:33:19.900Z,101472.20
2019-02-05T02:35:50.388Z,101477.38
2019-02-05T02:38:21.001Z,101482.56
2019-02-05T02:40:51.423Z,101482.09
2019-02-05T02:43:21.871Z,101487.27
2019-02-05T02:45:52.357Z,101489.10
2019-02-05T02:48:22.740Z,101486.00
2019-02-05T02:50:53.035Z,101485.55
2019-02-05T02:53:24.355Z,101480.17
2019-02-05T02:55:55.169Z,101483.16
2019-02-05T02:58:25.625Z,101487.47
2019-02-05T03:00:56.254Z,101475.02
2019-02-05T03:03:26.596Z,101476.84
2019-02-05T03:05:57.314Z,101489.50
2019-02-05T03:08:27.779Z,101484.77
2019-02-05T03:10:58.100Z,101488.73
2019-02-05T03:13:28.549Z,101499.09
2019-02-05T03:15:59.204Z,101493.80
2019-02-05T03:18:29.512Z,101488.88
2019-02-05T03:20:59.910Z,101488.66
2019-02-05T03:23:30.195Z,101484.40
2019-02-05T03:26:00.547Z,101487.60
2019-02-05T03:28:32.159Z,101486.02
2019-02-05T03:31:03.069Z,101485.57
2019-02-05T03:33:33.331Z,101481.99
2019-02-05T03:36:03.705Z,101474.06
2019-02-05T03:38:34.105Z,101483.72
2019-02-05T03:41:05.185Z,101483.38
2019-02-05T03:43:36.368Z,101486.66
2019-02-05T03:46:09.000Z,101489.72
2019-02-05T03:48:42.818Z,101487.41
2019-02-05T03:51:33.898Z,101491.84
2019-02-05T03:54:28.295Z,101497.06
2019-02-05T03:57:34.614Z,101489.72
2019-02-05T04:00:19.618Z,101497.59
2019-02-05T04:03:08.174Z,101497.97
2019-02-05T04:06:00.304Z,101499.75
2019-02-05T04:09:13.411Z,101495.41
2019-02-05T04:12:19.086Z,101499.30
2019-02-05T04:15:12.885Z,101499.65
2019-02-05T04:18:04.752Z,101508.80
2019-02-05T04:21:01.820Z,101500.36
2019-02-05T04:24:07.658Z,101507.81
2019-02-05T04:27:29.415Z,101508.56
2019-02-05T04:30:46.481Z,101510.30
2019-02-05T04:33:45.935Z,101508.69
2019-02-05T04:36:57.589Z,101504.73
2019-02-05T04:40:15.438Z,101509.48
2019-02-05T04:43:13.791Z,101506.78
2019-02-05T04:46:11.102Z,101500.64
2019-02-05T04:49:55.753Z,101504.60
2019-02-05T04:53:06.215Z,101505.11
2019-02-05T04:56:11.482Z,101502.95
2019-02-05T04:59:25.008Z,101514.94
2019-02-05T05:02:37.781Z,101512.66
2019-02-05T05:05:52.230Z,101517.64
2019-02-05T05:08:59.762Z,101519.97
2019-02-05T05:11:30.081Z,101517.73
2019-02-05T05:14:00.316Z,101528.43
2019-02-05T05:16:30.599Z,101528.58
2019-02-05T05:19:01.294Z,101529.45
2019-02-05T05:21:31.628Z,101530.86
2019-02-05T05:24:02.630Z,101527.81
2019-02-05T05:26:38.800Z,101526.11
2019-02-05T05:29:09.085Z,101533.52
2019-02-05T05:31:39.466Z,101532.71
2019-02-05T05:34:09.914Z,101549.47
2019-02-05T05:36:48.669Z,101545.66
2019-02-05T05:39:19.443Z,101544.41
2019-02-05T05:41:50.950Z,101547.95
2019-02-05T05:44:21.389Z,101546.63
2019-02-05T05:46:51.625Z,101541.29
2019-02-05T05:49:23.204Z,101545.70
2019-02-05T05:51:53.594Z,101546.64
2019-02-05T05:54:24.113Z,101541.36
2019-02-05T05:56:54.495Z,101551.86
2019-02-05T05:59:24.773Z,101557.59
2019-02-05T06:01:55.272Z,101553.17
2019-02-05T06:04:26.276Z,101551.81
2019-02-05T06:06:56.941Z,101558.36
2019-02-05T06:09:27.396Z,101556.17
2019-02-05T06:11:57.737Z,101557.86
2019-02-05T06:14:28.135Z,101555.22
2019-02-05T06:16:58.493Z,101562.68
2019-02-05T06:19:29.050Z,101563.59
2019-02-05T06:22:00.099Z,101558.87
2019-02-05T06:24:30.919Z,101565.42
2019-02-05T06:27:01.417Z,101562.32
2019-02-05T06:29:32.048Z,101564.96
2019-02-05T06:32:02.419Z,101561.91
2019-02-05T06:34:32.913Z,101565.37
2019-02-05T06:37:03.737Z,101565.97
2019-02-05T06:39:34.117Z,101574.77
2019-02-05T06:42:04.489Z,101568.97
2019-02-05T06:44:34.925Z,101578.17
2019-02-05T06:47:05.493Z,101584.17
2019-02-05T06:49:35.713Z,101583.31
2019-02-05T06:52:06.070Z,101586.00
2019-02-05T06:54:36.713Z,101589.45
2019-02-05T06:57:07.066Z,101579.75
2019-02-05T06:59:38.040Z,101595.08
2019-02-05T07:02:09.844Z,101584.52
2019-02-05T07:04:41.247Z,101603.52
2019-02-05T07:07:11.869Z,101610.53
2019-02-05T07:09:43.318Z,101614.89
2019-02-05T07:12:13.601Z,101610.53
2019-02-05T07:14:46.009Z,101626.37
2019-02-05T07:17:17.688Z,101632.06
2019-02-05T07:19:50.252Z,101633.05
2019-02-05T07:22:22.678Z,101636.13
2019-02-05T07:24:55.561Z,101635.94
2019-02-05T07:27:27.679Z,101643.36
2019-02-05T07:29:59.489Z,101636.23
2019-02-05T07:32:30.968Z,101632.17
2019-02-05T07:35:03.524Z,101638.22
2019-02-05T07:37:36.641Z,101645.33
2019-02-05T07:40:09.625Z,101643.55
2019-02-05T07:42:41.391Z,101651.94
2019-02-05T07:45:15.703Z,101647.16
2019-02-05T07:47:47.410Z,101654.17
2019-02-05T07:50:22.276Z,101665.16
2019-02-05T07:52:54.227Z,101663.83
2019-02-05T07:55:26.237Z,101658.55
2019-02-05T07:57:57.908Z,101666.98
2019-02-05T08:00:30.398Z,101668.30
2019-02-05T08:03:02.148Z,101678.05
2019-02-05T08:05:35.830Z,101674.50
2019-02-05T08:08:07.873Z,101676.12
2019-02-05T08:10:39.867Z,101674.81
2019-02-05T08:13:11.436Z,101672.53
2019-02-05T08:15:43.987Z,101683.90
2019-02-05T08:18:16.194Z,101678.11
2019-02-05T08:20:48.098Z,101688.08
2019-02-05T08:23:20.695Z,101693.71
2019-02-05T08:25:52.779Z,101689.19
2019-02-05T08:28:24.975Z,101696.14
2019-02-05T08:30:56.482Z,101692.03
2019-02-05T08:33:29.079Z,101701.79
2019-02-05T08:36:01.109Z,101701.70
2019-02-05T08:38:34.163Z,101711.30
2019-02-05T08:41:05.873Z,101711.29
2019-02-05T08:43:38.493Z,101717.09
2019-02-05T08:46:10.901Z,101701.53
2019-02-05T08:48:43.527Z,101712.31
2019-02-05T08:51:15.550Z,101713.93
2019-02-05T08:53:48.557Z,101710.32
2019-02-05T08:56:18.977Z,101726.19
2019-02-05T08:58:49.230Z,101720.44
2019-02-05T09:01:19.394Z,101722.63
2019-02-05T09:03:49.774Z,101719.94
2019-02-05T09:06:20.424Z,101729.53
2019-02-05T09:08:50.753Z,101724.09
2019-02-05T09:11:21.051Z,101731.80
2019-02-05T09:13:51.309Z,101730.43
2019-02-05T09:16:21.767Z,101731.58
2019-02-05T09:18:52.119Z,101743.66
2019-02-05T09:21:22.713Z,101747.78
2019-02-05T09:23:52.990Z,101746.93
2019-02-05T09:26:23.360Z,101755.42
2019-02-05T09:28:53.791Z,101757.77
2019-02-05T09:31:24.277Z,101745.86
2019-02-05T09:33:55.742Z,101743.88
2019-02-05T09:36:27.120Z,101743.77
2019-02-05T09:38:57.803Z,101747.58
2019-02-05T09:41:28.254Z,101743.48
2019-02-05T09:43:58.990Z,101752.70
2019-02-05T09:46:29.398Z,101755.30
2019-02-05T09:48:59.699Z,101758.86
2019-02-05T09:51:31.187Z,101755.30
2019-02-05T09:54:02.132Z,101756.97
2019-02-05T09:56:32.921Z,101763.13
2019-02-05T09:59:03.494Z,101763.77
2019-02-05T10:01:33.896Z,101762.73
2019-02-05T10:04:05.294Z,101768.89
2019-02-05T10:06:36.027Z,101772.36
2019-02-05T10:09:08.528Z,101772.70
2019-02-05T10:11:38.928Z,101786.30
2019-02-05T10:14:09.243Z,101782.66
2019-02-05T10:16:41.696Z,101765.35
2019-02-05T10:19:12.434Z,101783.07
2019-02-05T10:21:42.928Z,101775.53
2019-02-05T10:24:13.350Z,101779.34
2019-02-05T10:26:43.549Z,101776.47
2019-02-05T10:29:14.087Z,101780.27
2019-02-05T10:31:45.542Z,101781.94
2019-02-05T10:34:16.014Z,101784.41
2019-02-05T10:36:46.514Z,101791.56
2019-02-05T10:39:17.226Z,101787.19
2019-02-05T10:41:47.707Z,101793.46
2019-02-05T10:44:18.014Z,101793.92
2019-02-05T10:46:49.270Z,101786.08
2019-02-05T10:49:19.596Z,101794.48
2019-02-05T10:51:49.954Z,101786.37
2019-02-05T10:54:20.341Z,101787.98
2019-02-05T10:56:50.678Z,101788.55
2019-02-05T10:59:20.900Z,101788.25
2019-02-05T11:01:51.378Z,101804.17
2019-02-05T11:04:21.842Z,101799.84
2019-02-05T11:06:52.061Z,101809.45
2019-02-05T11:09:22.484Z,101806.17
2019-02-05T11:11:52.673Z,101808.42
2019-02-05T11:14:22.874Z,101803.71
2019-02-05T11:16:53.205Z,101811.66
2019-02-05T11:19:23.620Z,101802.49
2019-02-05T11:21:53.850Z,101808.09
2019-02-05T11:24:24.180Z,101817.71
2019-02-05T11:26:54.572Z,101807.46
2019-02-05T11:29:25.694Z,101814.09
2019-02-05T11:31:56.997Z,101808.89
2019-02-05T11:34:27.166Z,101807.06
2019-02-05T11:36:57.582Z,101804.00
2019-02-05T11:39:28.176Z,101799.63
2019-02-05T11:41:58.611Z,101798.41
2019-02-05T11:44:29.109Z,101808.03
2019-02-05T11:47:00.277Z,101801.30
2019-02-05T11:49:30.993Z,101802.60
2019-02-05T11:52:01.337Z,101804.98
2019-02-05T11:54:32.355Z,101811.20
2019-02-05T11:57:02.845Z,101812.86
2019-02-05T11:59:33.491Z,101807.85
2019-02-05T12:02:04.896Z,101804.34
2019-02-05T12:04:35.345Z,101802.55
2019-02-05T12:07:05.686Z,101803.30
2019-02-05T12:09:37.192Z,101807.80
2019-02-05T12:12:07.542Z,101812.09
2019-02-05T12:14:37.921Z,101811.98
2019-02-05T12:17:08.245Z,101805.90
2019-02-05T12:19:41.580Z,101806.28
2019-02-05T12:22:11.997Z,101822.07
2019-02-05T12:24:42.539Z,101811.80
2019-02-05T12:27:12.875Z,101810.39
2019-02-05T12:29:43.148Z,101811.66
2019-02-05T12:32:13.624Z,101820.13
2019-02-05T12:34:43.878Z,101813.51
2019-02-05T12:37:14.142Z,101821.05
2019-02-05T12:39:44.700Z,101817.77
2019-02-05T12:42:14.947Z,101819.05
2019-02-05T12:44:45.200Z,101811.09
2019-02-05T12:47:18.237Z,101813.34
2019-02-05T12:49:48.036Z,101803.55
2019-02-05T12:52:18.586Z,101806.92
2019-02-05T12:54:49.442Z,101804.27
2019-02-05T12:57:19.754Z,101812.28
2019-02-05T12:59:50.522Z,101811.65
2019-02-05T13:02:21.291Z,101802.72
2019-02-05T13:04:51.630Z,101812.74
2019-02-05T13:07:22.047Z,101810.07
2019-02-05T13:09:54.225Z,101817.62
2019-02-05T13:12:24.756Z,101815.70
2019-02-05T13:14:55.466Z,101815.23
2019-02-05T13:17:25.935Z,101814.26
2019-02-05T13:19:56.281Z,101814.06
2019-02-05T13:22:26.634Z,101809.66
2019-02-05T13:24:57.035Z,101814.95
2019-02-05T13:27:27.450Z,101812.28
2019-02-05T13:29:57.785Z,101812.30
2019-02-05T13:32:30.349Z,101815.80
2019-02-05T13:35:00.613Z,101813.95
2019-02-05T13:37:30.806Z,101813.55
2019-02-05T13:40:03.176Z,101818.73
2019-02-05T13:42:34.079Z,101821.33
2019-02-05T13:45:08.082Z,101814.56
2019-02-05T13:47:38.472Z,101820.05
2019-02-05T13:50:14.770Z,101821.31
2019-02-05T13:52:45.399Z,101827.13
2019-02-05T13:55:18.741Z,101822.00
2019-02-05T13:57:51.149Z,101823.22
2019-02-05T14:00:24.283Z,101826.59
2019-02-05T14:02:54.969Z,101826.13
2019-02-05T14:05:27.672Z,101829.24
2019-02-05T14:07:57.918Z,101830.40
2019-02-05T14:10:30.291Z,101834.13
2019-02-05T14:13:01.049Z,101840.98
2019-02-05T14:15:33.402Z,101836.05
2019-02-05T14:18:04.567Z,101839.19
2019-02-05T14:20:35.258Z,101842.25
2019-02-05T14:23:05.487Z,101847.16
2019-02-05T14:25:35.765Z,101848.59
2019-02-05T14:28:08.388Z,101853.09
2019-02-05T14:30:55.890Z,101851.88
2019-02-05T14:33:27.698Z,101858.77
2019-02-05T14:35:59.061Z,101857.95
2019-02-05T14:38:29.449Z,101867.42
2019-02-05T14:41:00.338Z,101866.67
2019-02-05T14:43:33.762Z,101870.44
2019-02-05T14:46:04.313Z,101873.03
2019-02-05T14:48:34.634Z,101862.38
2019-02-05T14:51:04.981Z,101871.65
2019-02-05T14:53:35.284Z,101870.73
2019-02-05T14:56:05.924Z,101871.24
2019-02-05T14:58:36.344Z,101876.55
2019-02-05T15:01:06.781Z,101876.14
2019-02-05T15:03:37.208Z,101871.88
2019-02-05T15:06:07.555Z,101875.03
2019-02-05T15:08:39.103Z,101881.73
2019-02-05T15:11:14.027Z,101885.94
2019-02-05T15:13:44.513Z,101894.95
2019-02-05T15:16:15.173Z,101886.31
2019-02-05T15:18:45.576Z,101882.91
2019-02-05T15:21:16.346Z,101889.98
2019-02-05T15:23:46.856Z,101889.94
2019-02-05T15:26:17.274Z,101884.23
2019-02-05T15:28:48.620Z,101892.64
2019-02-05T15:31:21.228Z,101889.58
2019-02-05T15:34:00.036Z,101890.86
2019-02-05T15:36:42.997Z,101883.42
2019-02-05T15:39:15.005Z,101894.60
2019-02-05T15:41:48.148Z,101899.19
2019-02-05T15:44:18.556Z,101892.73
2019-02-05T15:46:49.595Z,101904.66
2019-02-05T15:49:28.346Z,101895.39
2019-02-05T15:51:59.128Z,101899.19
2019-02-05T15:54:29.733Z,101907.03
2019-02-05T15:57:00.082Z,101909.22
2019-02-05T15:59:30.451Z,101915.95
2019-02-05T16:02:06.467Z,101917.38
2019-02-05T16:04:33.900Z,101914.80
2019-02-05T16:07:04.513Z,101910.52
2019-02-05T16:09:35.694Z,101919.48
2019-02-05T16:12:06.342Z,101916.50
2019-02-05T16:14:37.286Z,101910.44
2019-02-05T16:17:08.025Z,101916.14
2019-02-05T16:19:52.923Z,101917.97
2019-02-05T16:22:27.411Z,101925.57
2019-02-05T16:24:59.905Z,101920.33
2019-02-05T16:27:38.360Z,101928.32
2019-02-05T16:30:23.697Z,101932.24
2019-02-05T16:32:58.871Z,101931.02
2019-02-05T16:35:29.550Z,101931.87
2019-02-05T16:37:59.940Z,101936.77
2019-02-05T16:40:30.779Z,101939.92
2019-02-05T16:43:01.456Z,101936.77
2019-02-05T16:45:32.051Z,101943.24
2019-02-05T16:48:02.657Z,101949.80
2019-02-05T16:50:35.717Z,101949.23
2019-02-05T16:53:08.088Z,101951.89
2019-02-05T16:55:38.983Z,101954.95
2019-02-05T16:58:10.939Z,101954.64
2019-02-05T17:00:44.209Z,101955.16
2019-02-05T17:03:13.882Z,101947.36
2019-02-05T17:05:47.550Z,101956.73
2019-02-05T17:08:20.525Z,101959.94
2019-02-05T17:10:51.033Z,101950.83
2019-02-05T17:13:22.101Z,101951.34
2019-02-05T17:15:52.523Z,101957.95
2019-02-05T17:18:27.577Z,101968.55
2019-02-05T17:20:58.470Z,101966.41
2019-02-05T17:23:28.998Z,101967.31
2019-02-05T17:25:59.360Z,101968.23
2019-02-05T17:28:29.906Z,101972.16
2019-02-05T17:31:01.469Z,101973.94
2019-02-05T17:33:32.200Z,101974.70
2019-02-05T17:36:03.306Z,101972.52
2019-02-05T17:38:33.744Z,101977.03
2019-02-05T17:41:06.096Z,101988.58
2019-02-05T17:43:36.460Z,101988.17
2019-02-05T17:46:07.245Z,101984.61
2019-02-05T17:48:37.774Z,101987.73
2019-02-05T17:51:08.139Z,101989.97
2019-02-05T17:53:39.456Z,101999.27
2019-02-05T17:56:10.141Z,102004.16
2019-02-05T17:58:46.535Z,101998.86
2019-02-05T18:01:20.794Z,102006.03
2019-02-05T18:03:54.186Z,102003.12
2019-02-05T18:06:24.816Z,102004.48
2019-02-05T18:08:55.738Z,102002.25
2019-02-05T18:11:26.295Z,102008.91
2019-02-05T18:14:04.518Z,102008.50
2019-02-05T18:16:35.428Z,102003.77
2019-02-05T18:19:06.565Z,102009.14
2019-02-05T18:21:38.595Z,102001.34
2019-02-05T18:24:11.083Z,102011.93
2019-02-05T18:26:41.743Z,102014.70
2019-02-05T18:29:13.228Z,102026.84
2019-02-05T18:31:44.050Z,102025.55
2019-02-05T18:34:15.045Z,102026.50
2019-02-05T18:36:49.035Z,102021.06
2019-02-05T18:39:22.430Z,102030.37
2019-02-05T18:41:54.471Z,102018.22
2019-02-05T18:44:25.056Z,102015.66
2019-02-05T18:46:57.173Z,102021.98
2019-02-05T18:49:27.669Z,102022.44
2019-02-05T18:52:02.089Z,102032.55
2019-02-05T18:54:37.606Z,102028.80
2019-02-05T18:57:08.269Z,102031.93
2019-02-05T18:59:39.411Z,102025.86
2019-02-05T19:02:09.951Z,102024.16
2019-02-05T19:04:42.032Z,102023.71
2019-02-05T19:07:12.592Z,102022.77
2019-02-05T19:09:44.267Z,102028.58
2019-02-05T19:12:14.658Z,102024.25
2019-02-05T19:14:45.846Z,102021.76
2019-02-05T19:17:18.361Z,102028.06
2019-02-05T19:19:49.851Z,102037.80
2019-02-05T19:22:20.269Z,102025.91
2019-02-05T19:24:57.571Z,102030.70
2019-02-05T19:27:34.446Z,102028.14
2019-02-05T19:30:07.479Z,102029.54
2019-02-05T19:32:38.315Z,102028.26
2019-02-05T19:35:10.371Z,102029.55
2019-02-05T19:37:41.025Z,102031.73
2019-02-05T19:40:13.481Z,102031.31
2019-02-05T19:42:44.890Z,102028.26
2019-02-05T19:45:43.590Z,102025.69
2019-02-05T19:48:20.799Z,102020.41
2019-02-05T19:50:52.875Z,102019.99
2019-02-05T19:53:25.977Z,102023.02
2019-02-05T19:55:58.844Z,102026.03
2019-02-05T19:58:31.622Z,102018.52
2019-02-05T20:01:01.947Z,102019.88
2019-02-05T20:03:38.707Z,102027.42
2019-02-05T20:06:05.541Z,102036.37
2019-02-05T20:08:36.045Z,102040.37
2019-02-05T20:11:07.973Z,102033.77
2019-02-05T20:13:40.336Z,102049.23
2019-02-05T20:16:10.857Z,102049.23
2019-02-05T20:18:41.118Z,102049.61
2019-02-05T20:21:12.032Z,102052.14
2019-02-05T20:23:42.588Z,102055.20
2019-02-05T20:26:12.943Z,102052.45
2019-02-05T20:28:44.574Z,102054.19
2019-02-05T20:31:15.470Z,102056.41
2019-02-05T20:33:49.827Z,102050.37
2019-02-05T20:36:18.932Z,102051.77
2019-02-05T20:39:15.896Z,102045.58
2019-02-05T20:41:49.039Z,102050.06
2019-02-05T20:44:30.215Z,102049.20
2019-02-05T20:47:00.746Z,102045.27
2019-02-05T20:49:34.260Z,102053.19
2019-02-05T20:52:05.854Z,102048.25
2019-02-05T20:54:36.352Z,102053.95
2019-02-05T20:57:09.592Z,102053.42
2019-02-05T20:59:40.585Z,102053.84
2019-02-05T21:02:14.385Z,102049.05
2019-02-05T21:04:48.355Z,102050.82
2019-02-05T21:07:19.234Z,102052.10
2019-02-05T21:10:02.600Z,102055.61
2019-02-05T21:12:41.629Z,102049.35
2019-02-05T21:15:12.622Z,102053.66
2019-02-05T21:17:43.286Z,102057.62
2019-02-05T21:20:28.758Z,102053.58
2019-02-05T21:22:50.951Z,102056.22
2019-02-05T21:25:25.454Z,102065.42
2019-02-05T21:27:58.352Z,102067.09
2019-02-05T21:30:32.800Z,102049.84
2019-02-05T21:33:03.154Z,102054.30
2019-02-05T21:35:34.526Z,102063.62
2019-02-05T21:38:05.345Z,102057.02
2019-02-05T21:40:46.276Z,102064.07
2019-02-05T21:43:16.689Z,102063.09
2019-02-05T21:45:55.607Z,102064.75
2019-02-05T21:51:40.924Z,102066.29
2019-02-05T21:54:11.595Z,102067.53
2019-02-05T21:56:42.278Z,102066.05
2019-02-05T21:59:13.692Z,102065.89
2019-02-05T22:01:44.568Z,102062.80
2019-02-05T22:04:26.462Z,102064.98
2019-02-05T22:06:47.351Z,102070.23
2019-02-05T22:09:17.984Z,102070.27
2019-02-05T22:11:48.610Z,102071.22
2019-02-05T22:14:19.126Z,102067.25
2019-02-05T22:16:49.720Z,102065.89
2019-02-05T22:19:21.071Z,102057.92
2019-02-05T22:21:52.039Z,102055.19
2019-02-05T22:24:25.206Z,102055.61
2019-02-05T22:26:55.837Z,102056.77
2019-02-05T22:29:26.110Z,102058.87
2019-02-05T22:31:56.450Z,102056.59
2019-02-05T22:34:38.605Z,102060.93
2019-02-05T22:36:59.302Z,102066.17
2019-02-05T22:39:31.368Z,102063.03
2019-02-05T22:42:01.875Z,102070.89
2019-02-05T22:44:32.172Z,102070.84
2019-02-05T22:47:02.658Z,102068.61
2019-02-05T22:49:33.117Z,102066.14
2019-02-05T22:52:03.915Z,102072.79
2019-02-05T22:54:34.475Z,102071.64
2019-02-05T22:57:05.045Z,102071.30
2019-02-05T22:59:35.819Z,102064.70
2019-02-05T23:02:06.711Z,102060.69
2019-02-05T23:05:32.749Z,102052.80
2019-02-05T23:08:03.173Z,102054.13
2019-02-05T23:11:07.792Z,102049.38
2019-02-05T23:13:38.503Z,102055.11
2019-02-05T23:16:08.911Z,102051.68
2019-02-05T23:18:39.649Z,102053.91
2019-02-05T23:21:10.175Z,102061.72
2019-02-05T23:23:40.628Z,102058.62
2019-02-05T23:26:11.261Z,102066.14
2019-02-05T23:28:41.663Z,102063.91
2019-02-05T23:31:12.618Z,102062.09
2019-02-05T23:33:44.807Z,102067.34
2019-02-05T23:36:16.067Z,102058.98
2019-02-05T23:38:46.648Z,102063.09
2019-02-05T23:41:17.630Z,102064.03
2019-02-05T23:43:48.382Z,102065.31
2019-02-05T23:46:18.806Z,102056.89
2019-02-05T23:48:49.388Z,102066.48
2019-02-05T23:51:20.080Z,102056.81
2019-02-05T23:53:51.674Z,102058.66
2019-02-05T23:56:25.659Z,102064.08
2019-02-05T23:58:54.210Z,102064.61
